Página principal
METAR-TAF:

METAR-TAF

Aeroportos :

Aeroporto Internacional Diori Hamani

Niamey, Níger

latitude: 13-29N, longitude: 002-10E, altura: 223 m

Observação actual do tempo

O boletim foi feito há 25 minutos, às 14:00 UTC
Vento 13 kt de oeste
Temperatura 35°C
Humidade 42%
Pressão 1010 hPa
Visibilidade 10 km ou mais
Nuvens dispersasa uma altura de 2000 ft
Poucas nuvensa uma altura de 3000 ft, Cumulonimbus.

METAR: DRRN 201400Z 27013KT 9999 SCT020 FEW030CB 35/20 Q1010 NOSIG

Hora: 15:25 (14:25 UTC)

Previsão

O boletim foi feito há 3 horas e 25 minutos, às 11:00 UTC
Previsão válida de 20 às 12 UTC a 21 às 18 UTC
Vento 10 kt de oeste
Visibilidade 10 km ou mais
Poucas nuvensa uma altura de 2000 ft
Probabilidade 40%
entre TE e MO UTC
Nuvens dispersasa uma altura de 2000 ft
Poucas nuvensa uma altura de 3000 ft, Cumulonimbus.
trovoada

TAF: DRRN 201100Z 2012/2118 28010KT 9999 FEW020 PROB40 TEMO 2014/2020 TS SCT020 FEW030CB

Observações e previsões do tempo de mais de 4000 aeroportos (mensagens METAR e TAF).

As estações disponíveis são os pontos amarelos e vermelhos sobre o mapa.

Mova o rato sobre o mapa para ver o nome da estação.

Depois clique no ponto para visualizar as observações e previsões meteorológicas.

Para alterar o mapa : clique nos botões verdes com uma cruz preta para aumentar o zoom; no botão verde com uma pitada de zoom; ou nas setas verdes para mapas adjacentes.


METAR-TAF: